Terminal Aerodrome Forecast
Issued by NWS Jackson, MS

Home | Current Version | Previous Version | Text Only | Print | Product List | Glossary On
Versions: 1 2 3 4 5 6 7 8 9 10 11 12 13 14 15 16 17
000
FTUS44 KMEG 271731
TAFTUP
TAF
KTUP 271731Z 2718/2818 25005KT P6SM OVC017
     FM272000 28007KT P6SM SCT025
     FM280000 12003KT P6SM SCT250
     FM280900 15008KT P6SM FEW015
      TEMPO 2809/2812 OVC015
     FM281200 17010KT P6SM OVC015
     FM281600 18012G20KT P6SM BKN025=

USA.gov is the U.S. government's official web portal to all federal, state and local government web resources and services.